createdAt,value
2019-01-15T00:00:13.183Z,95572.06
2019-01-15T00:03:05.470Z,95582.03
2019-01-15T00:05:48.482Z,95589.39
2019-01-15T00:08:39.027Z,95591.04
2019-01-15T00:11:21.918Z,95592.69
2019-01-15T00:14:12.453Z,95598.94
2019-01-15T00:16:55.854Z,95598.30
2019-01-15T00:19:38.609Z,95594.39
2019-01-15T00:22:29.110Z,95594.45
2019-01-15T00:25:12.037Z,95602.72
2019-01-15T00:28:02.534Z,95597.03
2019-01-15T00:30:46.115Z,95596.73
2019-01-15T00:33:36.616Z,95592.61
2019-01-15T00:36:19.793Z,95606.39
2019-01-15T00:39:10.313Z,95610.66
2019-01-15T00:41:53.842Z,95619.98
2019-01-15T00:44:44.375Z,95621.16
2019-01-15T00:47:33.525Z,95623.61
2019-01-15T00:50:24.056Z,95622.31
2019-01-15T00:53:05.758Z,95624.80
2019-01-15T00:55:56.272Z,95628.07
2019-01-15T00:58:39.803Z,95631.17
2019-01-15T01:01:30.223Z,95635.89
2019-01-15T01:04:13.205Z,95630.72
2019-01-15T01:10:26.103Z,95631.55
2019-01-15T01:13:16.740Z,95640.28
2019-01-15T01:16:00.238Z,95643.41
2019-01-15T01:18:50.883Z,95642.92
2019-01-15T01:21:34.158Z,95643.70
2019-01-15T01:24:24.671Z,95638.77
2019-01-15T01:27:06.223Z,95645.36
2019-01-15T01:29:56.746Z,95656.80
2019-01-15T01:32:40.056Z,95652.02
2019-01-15T01:35:30.574Z,95657.50
2019-01-15T01:38:14.023Z,95658.56
2019-01-15T01:41:04.585Z,95658.20
2019-01-15T01:43:47.355Z,95659.64
2019-01-15T01:46:40.040Z,95659.50
2019-01-15T01:49:21.717Z,95658.00
2019-01-15T01:52:12.239Z,95667.32
2019-01-15T01:54:55.710Z,95660.48
2019-01-15T02:01:08.876Z,95662.60
2019-01-15T02:03:51.828Z,95667.25
2019-01-15T02:06:35.058Z,95667.31
2019-01-15T02:09:25.620Z,95668.44
2019-01-15T02:12:08.995Z,95670.28
2019-01-15T02:14:59.507Z,95676.78
2019-01-15T02:17:42.997Z,95683.53
2019-01-15T02:20:34.478Z,95685.84
2019-01-15T02:23:18.039Z,95681.44
2019-01-15T02:26:08.548Z,95679.97
2019-01-15T02:28:51.348Z,95684.84
2019-01-15T02:31:41.884Z,95686.14
2019-01-15T02:34:24.687Z,95687.40
2019-01-15T02:37:15.201Z,95691.03
2019-01-15T02:39:58.237Z,95699.84
2019-01-15T02:42:48.758Z,95696.28
2019-01-15T02:45:32.087Z,95698.58
2019-01-15T02:48:22.621Z,95692.06
2019-01-15T02:51:11.161Z,95702.98
2019-01-15T02:54:01.681Z,95703.21
2019-01-15T02:56:44.563Z,95704.89
2019-01-15T03:02:58.191Z,95718.76
2019-01-15T03:05:48.706Z,95723.95
2019-01-15T03:08:30.381Z,95738.13
2019-01-15T03:11:20.895Z,95729.47
2019-01-15T03:14:04.281Z,95722.27
2019-01-15T03:16:54.789Z,95723.72
2019-01-15T03:19:38.253Z,95728.43
2019-01-15T03:22:29.125Z,95728.06
2019-01-15T03:25:12.681Z,95728.52
2019-01-15T03:28:03.192Z,95740.30
2019-01-15T03:30:46.373Z,95737.97
2019-01-15T03:33:36.909Z,95737.11
2019-01-15T03:36:19.681Z,95747.48
2019-01-15T03:39:10.751Z,95735.73
2019-01-15T03:41:54.143Z,95737.48
2019-01-15T03:44:44.651Z,95742.43
2019-01-15T03:47:29.540Z,95735.16
2019-01-15T03:50:20.254Z,95733.34
2019-01-15T03:53:03.578Z,95736.88
2019-01-15T03:55:47.203Z,95733.17
2019-01-15T03:58:37.706Z,95734.11
2019-01-15T04:01:21.209Z,95736.41
2019-01-15T04:04:11.813Z,95745.16
2019-01-15T04:06:54.892Z,95745.05
2019-01-15T04:10:04.558Z,95751.34
2019-01-15T04:12:46.200Z,95759.34
2019-01-15T04:15:38.334Z,95756.22
2019-01-15T04:18:21.656Z,95760.41
2019-01-15T04:21:12.192Z,95761.47
2019-01-15T04:23:55.383Z,95755.20
2019-01-15T04:26:40.958Z,95766.64
2019-01-15T04:29:31.466Z,95765.36
2019-01-15T04:32:14.911Z,95772.25
2019-01-15T04:35:06.774Z,95768.50
2019-01-15T04:37:50.387Z,95781.34
2019-01-15T04:40:40.888Z,95783.70
2019-01-15T04:43:24.464Z,95784.59
2019-01-15T04:46:15.247Z,95772.34
2019-01-15T04:48:58.175Z,95755.20
2019-01-15T04:51:48.693Z,95773.11
2019-01-15T04:54:32.080Z,95779.59
2019-01-15T04:57:15.836Z,95786.33
2019-01-15T05:00:09.048Z,95782.09
2019-01-15T05:02:50.685Z,95782.05
2019-01-15T05:05:41.215Z,95778.48
2019-01-15T05:08:24.308Z,95771.64
2019-01-15T05:11:15.358Z,95784.95
2019-01-15T05:13:58.458Z,95783.73
2019-01-15T05:19:56.260Z,95788.59
2019-01-15T05:22:46.780Z,95797.75
2019-01-15T05:25:29.987Z,95796.67
2019-01-15T05:28:20.504Z,95798.95
2019-01-15T05:31:03.802Z,95800.17
2019-01-15T05:33:54.322Z,95809.13
2019-01-15T05:36:37.807Z,95807.28
2019-01-15T05:39:28.320Z,95809.87
2019-01-15T05:42:11.672Z,95810.73
2019-01-15T05:51:39.326Z,95806.32
2019-01-15T05:54:29.855Z,95832.70
2019-01-15T05:57:11.399Z,95820.98
2019-01-15T05:59:54.421Z,95839.55
2019-01-15T06:02:44.932Z,95837.38
2019-01-15T06:05:27.636Z,95824.31
2019-01-15T06:08:18.072Z,95824.31
2019-01-15T06:11:01.333Z,95825.36
2019-01-15T06:13:44.452Z,95826.05
2019-01-15T06:19:44.302Z,95825.23
2019-01-15T06:22:34.838Z,95826.30
2019-01-15T06:25:18.376Z,95835.06
2019-01-15T06:28:08.860Z,95837.62
2019-01-15T06:30:52.106Z,95840.55
2019-01-15T06:33:43.074Z,95839.84
2019-01-15T06:36:26.668Z,95853.08
2019-01-15T06:39:55.895Z,95858.39
2019-01-15T06:42:39.239Z,95858.23
2019-01-15T06:45:29.809Z,95857.35
2019-01-15T06:48:12.714Z,95853.50
2019-01-15T06:51:22.653Z,95863.98
2019-01-15T06:54:04.232Z,95853.80
2019-01-15T06:56:54.752Z,95846.30
2019-01-15T06:59:38.135Z,95843.44
2019-01-15T07:02:28.644Z,95842.80
2019-01-15T07:05:11.785Z,95828.25
2019-01-15T07:08:02.284Z,95842.91
2019-01-15T07:10:45.167Z,95844.31
2019-01-15T07:13:35.691Z,95841.59
2019-01-15T07:16:19.147Z,95856.67
2019-01-15T07:19:09.682Z,95860.64
2019-01-15T07:21:52.691Z,95879.63
2019-01-15T07:24:43.199Z,95883.61
2019-01-15T07:27:26.339Z,95883.63
2019-01-15T07:30:19.775Z,95896.65
2019-01-15T07:33:01.240Z,95904.59
2019-01-15T07:35:51.784Z,95905.63
2019-01-15T07:38:33.370Z,95898.33
2019-01-15T07:41:23.891Z,95901.22
2019-01-15T07:44:07.021Z,95896.87
2019-01-15T07:46:57.561Z,95892.39
2019-01-15T07:49:40.699Z,95894.72
2019-01-15T07:52:31.444Z,95899.30
2019-01-15T07:55:15.579Z,95901.79
2019-01-15T07:58:07.189Z,95899.36
2019-01-15T08:00:50.418Z,95905.00
2019-01-15T08:03:33.846Z,95892.53
2019-01-15T08:06:24.379Z,95891.02
2019-01-15T08:09:09.051Z,95902.97
2019-01-15T08:11:52.469Z,95904.80
2019-01-15T08:14:43.221Z,95903.92
2019-01-15T08:17:26.711Z,95912.47
2019-01-15T08:20:17.234Z,95905.50
2019-01-15T08:23:00.366Z,95908.47
2019-01-15T08:25:50.939Z,95912.20
2019-01-15T08:28:32.483Z,95904.83
2019-01-15T08:34:14.698Z,95919.00
2019-01-15T08:36:58.262Z,95923.47
2019-01-15T08:39:48.780Z,95931.76
2019-01-15T08:42:38.023Z,95930.27
2019-01-15T08:45:28.563Z,95919.80
2019-01-15T08:48:19.877Z,95916.05
2019-01-15T08:51:04.037Z,95923.06
2019-01-15T08:53:47.877Z,95925.38
2019-01-15T08:56:38.429Z,95916.92
2019-01-15T08:59:21.962Z,95914.91
2019-01-15T09:02:12.476Z,95921.38
2019-01-15T09:04:54.018Z,95921.74
2019-01-15T09:07:44.759Z,95912.45
2019-01-15T09:10:28.127Z,95906.91
2019-01-15T09:13:18.677Z,95914.93
2019-01-15T09:16:02.039Z,95904.18
2019-01-15T09:18:52.557Z,95911.83
2019-01-15T09:21:54.502Z,95913.02
2019-01-15T09:24:45.111Z,95909.03
2019-01-15T09:27:28.552Z,95906.98
2019-01-15T09:30:22.074Z,95913.05
2019-01-15T09:33:05.340Z,95904.35
2019-01-15T09:35:49.520Z,95900.44
2019-01-15T09:38:40.123Z,95897.09
2019-01-15T09:41:30.157Z,95888.05
2019-01-15T09:44:20.690Z,95895.96
2019-01-15T09:47:04.037Z,95895.47
2019-01-15T09:49:55.448Z,95892.05
2019-01-15T09:52:38.672Z,95889.91
2019-01-15T09:55:22.547Z,95894.67
2019-01-15T09:58:14.131Z,95892.05
2019-01-15T10:00:55.725Z,95880.03
2019-01-15T10:03:46.278Z,95876.33
2019-01-15T10:06:29.791Z,95881.45
2019-01-15T10:09:20.338Z,95868.64
2019-01-15T10:12:03.912Z,95866.48
2019-01-15T10:14:54.470Z,95871.06
2019-01-15T10:17:38.101Z,95864.91
2019-01-15T10:20:28.811Z,95858.88
2019-01-15T10:23:12.050Z,95854.66
2019-01-15T10:26:02.594Z,95846.59
2019-01-15T10:28:46.251Z,95831.94
2019-01-15T10:32:15.281Z,95842.13
2019-01-15T10:34:57.536Z,95839.97
2019-01-15T10:37:48.346Z,95846.39
2019-01-15T10:40:31.442Z,95842.44
2019-01-15T10:43:22.029Z,95841.41
2019-01-15T10:46:05.708Z,95846.14
2019-01-15T10:48:58.917Z,95841.70
2019-01-15T10:51:42.174Z,95842.59
2019-01-15T10:54:32.943Z,95838.60
2019-01-15T10:57:16.412Z,95834.59
2019-01-15T10:59:59.943Z,95830.75
2019-01-15T11:02:50.497Z,95821.88
2019-01-15T11:05:33.781Z,95819.61
2019-01-15T11:08:17.388Z,95808.21
2019-01-15T11:11:03.351Z,95802.39
2019-01-15T11:13:53.890Z,95802.29
2019-01-15T11:16:37.121Z,95798.20
2019-01-15T11:19:28.645Z,95794.79
2019-01-15T11:22:12.129Z,95796.03
2019-01-15T11:25:02.852Z,95785.80
2019-01-15T11:27:45.704Z,95794.91
2019-01-15T11:30:36.238Z,95787.97
2019-01-15T11:33:20.786Z,95777.66
2019-01-15T11:36:11.385Z,95780.34
2019-01-15T11:38:54.639Z,95788.13
2019-01-15T11:41:45.175Z,95791.03
2019-01-15T11:44:48.987Z,95787.64
2019-01-15T11:47:39.545Z,95789.36
2019-01-15T11:50:22.394Z,95777.91
2019-01-15T11:53:12.940Z,95772.20
2019-01-15T11:55:56.352Z,95766.23
2019-01-15T12:02:22.344Z,95757.52
2019-01-15T12:05:34.288Z,95751.52
2019-01-15T12:08:36.606Z,95758.99
2019-01-15T12:11:45.971Z,95743.49
2019-01-15T12:14:47.888Z,95738.49
2019-01-15T12:17:57.381Z,95739.05
2019-01-15T12:20:57.806Z,95747.19
2019-01-15T12:24:05.829Z,95736.38
2019-01-15T12:27:15.546Z,95738.49
2019-01-15T12:30:17.622Z,95738.74
2019-01-15T12:33:27.399Z,95734.16
2019-01-15T12:36:25.273Z,95731.28
2019-01-15T12:39:35.754Z,95730.25
2019-01-15T12:42:37.994Z,95725.84
2019-01-15T12:45:47.667Z,95718.96
2019-01-15T12:48:44.913Z,95726.53
2019-01-15T12:51:55.092Z,95709.75
2019-01-15T12:54:57.525Z,95720.42
2019-01-15T12:58:06.962Z,95721.74
2019-01-15T13:01:11.388Z,95715.48
2019-01-15T13:04:20.850Z,95714.69
2019-01-15T13:07:22.507Z,95712.66
2019-01-15T13:10:31.923Z,95711.88
2019-01-15T13:13:33.695Z,95720.29
2019-01-15T13:16:43.095Z,95711.38
2019-01-15T13:19:46.464Z,95717.36
2019-01-15T13:22:51.142Z,95724.67
2019-01-15T13:25:53.040Z,95724.33
2019-01-15T13:29:02.555Z,95721.76
2019-01-15T13:32:04.652Z,95720.22
2019-01-15T13:35:07.870Z,95716.60
2019-01-15T13:38:17.243Z,95710.58
2019-01-15T13:41:19.273Z,95725.39
2019-01-15T13:44:28.677Z,95720.11
2019-01-15T13:47:35.179Z,95718.36
2019-01-15T13:50:36.205Z,95720.78
2019-01-15T13:53:45.700Z,95724.97
2019-01-15T13:56:47.474Z,95724.83
2019-01-15T13:59:56.890Z,95719.13
2019-01-15T14:02:49.519Z,95712.37
2019-01-15T14:05:51.367Z,95722.98
2019-01-15T14:09:00.758Z,95713.32
2019-01-15T14:15:30.175Z,95715.45
2019-01-15T14:18:38.410Z,95705.20
2019-01-15T14:21:40.627Z,95711.97
2019-01-15T14:24:50.088Z,95716.25
2019-01-15T14:27:55.364Z,95715.72
2019-01-15T14:31:05.552Z,95717.23
2019-01-15T14:34:13.968Z,95709.76
2019-01-15T14:37:23.439Z,95721.17
2019-01-15T14:40:17.069Z,95727.77
2019-01-15T14:43:26.507Z,95718.77
2019-01-15T14:46:28.598Z,95717.91
2019-01-15T14:49:38.043Z,95714.58
2019-01-15T14:52:30.589Z,95715.53
2019-01-15T14:55:39.989Z,95719.00
2019-01-15T14:58:43.329Z,95732.23
2019-01-15T15:01:52.747Z,95722.63
2019-01-15T15:05:00.605Z,95726.72
2019-01-15T15:08:10.118Z,95729.09
2019-01-15T15:11:18.586Z,95715.42
2019-01-15T15:14:47.039Z,95722.30
2019-01-15T15:17:51.826Z,95720.05
2019-01-15T15:21:01.260Z,95719.69
2019-01-15T15:24:02.944Z,95712.91
2019-01-15T15:27:12.362Z,95715.92
2019-01-15T15:30:13.924Z,95724.29
2019-01-15T15:33:23.481Z,95711.00
2019-01-15T15:36:30.644Z,95712.99
2019-01-15T15:39:40.067Z,95715.30
2019-01-15T15:42:48.010Z,95710.41
2019-01-15T15:45:57.416Z,95714.97
2019-01-15T15:49:00.084Z,95718.24
2019-01-15T15:52:08.012Z,95713.69
2019-01-15T15:55:10.348Z,95718.63
2019-01-15T15:58:11.540Z,95714.97
2019-01-15T16:01:13.856Z,95722.36
2019-01-15T16:04:16.345Z,95716.98
2019-01-15T16:07:10.595Z,95723.17
2019-01-15T16:10:15.552Z,95720.84
2019-01-15T16:13:13.793Z,95721.34
2019-01-15T16:16:08.117Z,95718.55
2019-01-15T16:19:11.292Z,95729.62
2019-01-15T16:22:20.699Z,95725.27
2019-01-15T16:25:22.566Z,95728.06
2019-01-15T16:28:31.986Z,95718.11
2019-01-15T16:31:39.738Z,95725.97
2019-01-15T16:34:41.970Z,95720.02
2019-01-15T16:37:51.372Z,95726.94
2019-01-15T16:40:52.958Z,95732.40
2019-01-15T16:44:02.365Z,95738.62
2019-01-15T16:47:04.625Z,95733.48
2019-01-15T16:50:11.310Z,95738.25
2019-01-15T16:53:18.118Z,95740.53
2019-01-15T16:56:20.539Z,95736.23
2019-01-15T16:59:29.984Z,95723.41
2019-01-15T17:02:32.387Z,95732.80
2019-01-15T17:05:34.622Z,95734.16
2019-01-15T17:08:44.015Z,95726.06
2019-01-15T17:11:45.904Z,95735.28
2019-01-15T17:14:49.419Z,95729.30
2019-01-15T17:17:48.396Z,95727.20
2019-01-15T17:20:38.590Z,95731.63
2019-01-15T17:23:48.182Z,95730.09
2019-01-15T17:26:50.553Z,95726.94
2019-01-15T17:30:00.089Z,95715.79
2019-01-15T17:33:02.521Z,95704.08
2019-01-15T17:36:04.209Z,95703.20
2019-01-15T17:39:14.588Z,95705.70
2019-01-15T17:42:16.998Z,95701.98
2019-01-15T17:45:27.255Z,95702.67
2019-01-15T17:48:32.207Z,95692.77
2019-01-15T17:51:41.595Z,95697.75
2019-01-15T17:54:43.967Z,95697.10
2019-01-15T17:57:53.363Z,95701.81
2019-01-15T18:00:55.511Z,95700.81
2019-01-15T18:04:04.947Z,95705.37
2019-01-15T18:07:14.350Z,95709.27
2019-01-15T18:10:16.487Z,95711.08
2019-01-15T18:13:25.882Z,95719.23
2019-01-15T18:16:28.050Z,95721.60
2019-01-15T18:19:37.403Z,95720.16
2019-01-15T18:22:37.884Z,95725.36
2019-01-15T18:25:47.606Z,95718.18
2019-01-15T18:28:55.929Z,95710.08
2019-01-15T18:32:05.314Z,95715.94
2019-01-15T18:34:58.204Z,95713.14
2019-01-15T18:38:07.566Z,95720.72
2019-01-15T18:41:09.860Z,95719.36
2019-01-15T18:44:19.282Z,95720.56
2019-01-15T18:47:21.261Z,95726.53
2019-01-15T18:50:30.754Z,95729.19
2019-01-15T18:53:33.075Z,95732.87
2019-01-15T18:56:42.520Z,95731.34
2019-01-15T18:59:44.860Z,95736.55
2019-01-15T19:02:54.296Z,95746.83
2019-01-15T19:05:56.677Z,95744.91
2019-01-15T19:09:06.096Z,95746.63
2019-01-15T19:12:14.341Z,95743.67
2019-01-15T19:15:44.329Z,95755.42
2019-01-15T19:18:46.619Z,95758.32
2019-01-15T19:21:56.042Z,95749.81
2019-01-15T19:24:58.474Z,95751.77
2019-01-15T19:28:07.879Z,95748.11
2019-01-15T19:31:11.143Z,95737.93
2019-01-15T19:34:20.638Z,95734.56
2019-01-15T19:37:22.888Z,95728.55
2019-01-15T19:40:32.323Z,95709.50
2019-01-15T19:43:32.772Z,95708.61
2019-01-15T19:46:42.268Z,95712.39
2019-01-15T19:49:44.271Z,95714.16
2019-01-15T19:52:53.707Z,95701.80
2019-01-15T19:55:55.725Z,95708.02
2019-01-15T19:58:56.849Z,95705.97
2019-01-15T20:01:58.530Z,95708.17
2019-01-15T20:05:00.809Z,95706.08
2019-01-15T20:08:11.833Z,95703.64
2019-01-15T20:11:14.497Z,95703.64
2019-01-15T20:14:23.896Z,95703.84
2019-01-15T20:17:26.129Z,95711.23
2019-01-15T20:20:36.532Z,95703.28
2019-01-15T20:23:38.575Z,95705.41
2019-01-15T20:26:47.980Z,95705.80
2019-01-15T20:29:50.290Z,95714.91
2019-01-15T20:32:59.645Z,95705.48
2019-01-15T20:36:01.894Z,95717.59
2019-01-15T20:39:11.292Z,95722.41
2019-01-15T20:42:16.651Z,95724.90
2019-01-15T20:45:46.767Z,95713.38
2019-01-15T20:48:47.932Z,95721.84
2019-01-15T20:52:16.389Z,95717.76
2019-01-15T20:55:18.266Z,95725.04
2019-01-15T20:58:19.875Z,95721.98
2019-01-15T21:01:29.247Z,95710.01
2019-01-15T21:04:31.367Z,95720.75
2019-01-15T21:07:33.512Z,95706.30
2019-01-15T21:10:42.906Z,95711.05
2019-01-15T21:13:45.181Z,95702.67
2019-01-15T21:16:46.916Z,95720.55
2019-01-15T21:19:56.306Z,95721.22
2019-01-15T21:22:58.944Z,95727.02
2019-01-15T21:26:08.399Z,95719.95
2019-01-15T21:29:10.321Z,95714.35
2019-01-15T21:32:19.761Z,95715.59
2019-01-15T21:35:21.631Z,95716.34
2019-01-15T21:38:31.031Z,95716.88
2019-01-15T21:41:30.864Z,95720.05
2019-01-15T21:44:40.256Z,95732.77
2019-01-15T21:47:40.003Z,95734.75
2019-01-15T21:50:49.448Z,95732.67
2019-01-15T21:53:51.535Z,95729.77
2019-01-15T21:56:56.484Z,95716.20
2019-01-15T21:59:56.861Z,95727.50
2019-01-15T22:03:06.262Z,95730.28
2019-01-15T22:06:09.325Z,95726.61
2019-01-15T22:09:11.727Z,95734.67
2019-01-15T22:12:13.767Z,95726.52
2019-01-15T22:15:09.583Z,95721.84
2019-01-15T22:18:11.875Z,95716.81
2019-01-15T22:21:21.285Z,95709.19
2019-01-15T22:24:23.412Z,95710.63
2019-01-15T22:27:25.793Z,95708.05
2019-01-15T22:30:28.158Z,95706.19
2019-01-15T22:33:37.558Z,95703.53
2019-01-15T22:36:39.254Z,95704.08
2019-01-15T22:39:48.656Z,95698.02
2019-01-15T22:42:50.414Z,95688.09
2019-01-15T22:46:01.960Z,95688.39
2019-01-15T22:49:04.095Z,95679.72
2019-01-15T22:52:08.273Z,95673.23
2019-01-15T22:55:10.497Z,95669.91
2019-01-15T22:58:20.070Z,95670.39
2019-01-15T23:01:23.964Z,95672.73
2019-01-15T23:04:33.366Z,95668.27
2019-01-15T23:07:36.820Z,95666.00
2019-01-15T23:10:46.222Z,95667.05
2019-01-15T23:13:46.927Z,95673.47
2019-01-15T23:16:56.327Z,95671.20
2019-01-15T23:20:01.678Z,95666.92
2019-01-15T23:23:11.115Z,95664.66
2019-01-15T23:26:13.333Z,95666.23
2019-01-15T23:29:23.154Z,95661.72
2019-01-15T23:32:28.195Z,95665.17
2019-01-15T23:35:37.601Z,95663.73
2019-01-15T23:38:35.199Z,95655.98
2019-01-15T23:41:44.694Z,95667.04
2019-01-15T23:44:39.136Z,95659.28
2019-01-15T23:47:48.499Z,95650.47
2019-01-15T23:50:42.560Z,95654.38
2019-01-15T23:53:51.946Z,95658.98
2019-01-15T23:56:52.349Z,95653.20
